createdAt,value
2022-09-03T00:00:13.498Z,17.72
2022-09-03T00:02:45.773Z,17.77
2022-09-03T00:05:18.459Z,17.77
2022-09-03T00:07:55.707Z,17.72
2022-09-03T00:10:38.101Z,17.66
2022-09-03T00:13:08.653Z,17.64
2022-09-03T00:15:38.170Z,17.62
2022-09-03T00:18:10.121Z,17.59
2022-09-03T00:20:43.978Z,17.50
2022-09-03T00:23:19.566Z,17.56
2022-09-03T00:25:57.174Z,17.53
2022-09-03T00:28:30.219Z,17.50
2022-09-03T00:31:08.712Z,17.49
2022-09-03T00:33:38.805Z,17.41
2022-09-03T00:36:30.207Z,17.48
2022-09-03T00:38:59.387Z,17.44
2022-09-03T00:41:41.376Z,17.44
2022-09-03T00:44:27.131Z,17.40
2022-09-03T00:47:10.950Z,17.40
2022-09-03T00:49:59.504Z,17.36
2022-09-03T00:52:35.142Z,17.37
2022-09-03T00:55:29.041Z,17.33
2022-09-03T00:58:30.843Z,17.32
2022-09-03T01:00:58.318Z,17.32
2022-09-03T01:03:37.753Z,17.31
2022-09-03T01:06:42.310Z,17.29
2022-09-03T01:09:30.209Z,17.25
2022-09-03T01:12:02.845Z,17.23
2022-09-03T01:14:58.307Z,17.25
2022-09-03T01:17:42.899Z,17.16
2022-09-03T01:20:19.065Z,17.22
2022-09-03T01:23:04.650Z,17.27
2022-09-03T01:25:50.800Z,17.21
2022-09-03T01:28:44.129Z,17.22
2022-09-03T01:31:21.951Z,17.22
2022-09-03T01:34:16.045Z,17.23
2022-09-03T01:36:46.488Z,17.31
2022-09-03T01:39:40.033Z,17.31
2022-09-03T01:42:24.499Z,17.29
2022-09-03T01:45:07.866Z,17.33
2022-09-03T01:47:49.916Z,17.34
2022-09-03T01:50:40.649Z,17.30
2022-09-03T01:53:36.491Z,17.29
2022-09-03T01:56:38.027Z,17.33
2022-09-03T01:59:31.624Z,17.30
2022-09-03T02:02:10.435Z,17.31
2022-09-03T02:04:37.947Z,17.25
2022-09-03T02:07:05.986Z,17.20
2022-09-03T02:09:33.504Z,17.17
2022-09-03T02:12:15.501Z,17.10
2022-09-03T02:14:43.829Z,17.09
2022-09-03T02:17:12.404Z,17.07
2022-09-03T02:19:40.514Z,17.00
2022-09-03T02:22:08.046Z,16.96
2022-09-03T02:24:35.558Z,16.87
2022-09-03T02:27:03.151Z,16.96
2022-09-03T02:29:30.816Z,16.88
2022-09-03T02:31:59.216Z,16.87
2022-09-03T02:34:26.800Z,16.80
2022-09-03T02:36:54.494Z,16.81
2022-09-03T02:39:22.015Z,16.75
2022-09-03T02:41:56.567Z,16.72
2022-09-03T02:44:33.877Z,16.72
2022-09-03T02:47:05.241Z,16.63
2022-09-03T02:49:34.059Z,16.55
2022-09-03T02:52:06.358Z,16.61
2022-09-03T02:54:36.800Z,16.52
2022-09-03T02:57:04.460Z,16.48
2022-09-03T02:59:32.752Z,16.45
2022-09-03T03:02:01.031Z,16.42
2022-09-03T03:04:30.692Z,16.35
2022-09-03T03:06:58.203Z,16.31
2022-09-03T03:09:25.730Z,16.30
2022-09-03T03:11:55.395Z,16.27
2022-09-03T03:14:23.516Z,16.19
2022-09-03T03:16:52.416Z,16.19
2022-09-03T03:19:19.994Z,16.19
2022-09-03T03:21:47.460Z,16.13
2022-09-03T03:24:15.629Z,16.13
2022-09-03T03:26:43.234Z,16.13
2022-09-03T03:29:17.250Z,16.15
2022-09-03T03:31:45.043Z,16.12
2022-09-03T03:34:12.711Z,16.01
2022-09-03T03:36:40.315Z,16.01
2022-09-03T03:39:07.809Z,15.96
2022-09-03T03:41:38.938Z,15.97
2022-09-03T03:44:09.137Z,15.97
2022-09-03T03:46:39.576Z,15.96
2022-09-03T03:49:08.968Z,15.96
2022-09-03T03:51:38.012Z,15.96
2022-09-03T03:54:06.094Z,15.95
2022-09-03T03:56:34.628Z,15.90
2022-09-03T03:59:02.181Z,15.92
2022-09-03T04:01:29.967Z,15.88
2022-09-03T04:03:59.962Z,15.85
2022-09-03T04:06:29.182Z,15.87
2022-09-03T04:08:56.852Z,15.86
2022-09-03T04:11:25.201Z,15.86
2022-09-03T04:13:53.760Z,15.93
2022-09-03T04:16:27.405Z,15.88
2022-09-03T04:18:56.323Z,15.86
2022-09-03T04:21:29.054Z,15.85
2022-09-03T04:23:57.223Z,15.82
2022-09-03T04:26:27.586Z,15.86
2022-09-03T04:28:55.141Z,15.85
2022-09-03T04:31:23.250Z,15.81
2022-09-03T04:33:51.197Z,15.76
2022-09-03T04:36:24.166Z,15.77
2022-09-03T04:38:54.377Z,15.78
2022-09-03T04:41:25.845Z,15.76
2022-09-03T04:43:54.695Z,15.75
2022-09-03T04:46:25.942Z,15.53
2022-09-03T04:48:55.424Z,15.73
2022-09-03T04:51:27.181Z,15.75
2022-09-03T04:53:57.899Z,15.66
2022-09-03T04:56:27.713Z,15.70
2022-09-03T04:58:57.608Z,15.66
2022-09-03T05:01:27.588Z,15.67
2022-09-03T05:04:01.760Z,15.64
2022-09-03T05:06:30.895Z,15.61
2022-09-03T05:08:59.327Z,15.60
2022-09-03T05:11:28.393Z,15.57
2022-09-03T05:13:58.871Z,15.56
2022-09-03T05:16:28.320Z,15.52
2022-09-03T05:18:59.193Z,15.59
2022-09-03T05:21:28.462Z,15.60
2022-09-03T05:23:56.100Z,15.56
2022-09-03T05:26:30.271Z,15.54
2022-09-03T05:29:00.927Z,15.56
2022-09-03T05:31:31.917Z,15.54
2022-09-03T05:34:02.649Z,15.60
2022-09-03T05:36:32.690Z,15.55
2022-09-03T05:39:00.530Z,15.52
2022-09-03T05:41:29.871Z,15.53
2022-09-03T05:43:59.316Z,15.58
2022-09-03T05:46:31.699Z,15.60
2022-09-03T05:49:01.311Z,15.61
2022-09-03T05:51:29.738Z,15.60
2022-09-03T05:53:57.427Z,15.57
2022-09-03T05:56:27.306Z,15.64
2022-09-03T05:58:57.361Z,15.67
2022-09-03T06:01:30.902Z,15.69
2022-09-03T06:04:09.758Z,15.69
2022-09-03T06:06:40.112Z,15.78
2022-09-03T06:09:10.690Z,15.93
2022-09-03T06:11:39.972Z,15.85
2022-09-03T06:14:09.571Z,15.86
2022-09-03T06:16:39.830Z,15.87
2022-09-03T06:19:09.627Z,15.87
2022-09-03T06:21:40.050Z,15.96
2022-09-03T06:24:07.598Z,16.08
2022-09-03T06:26:35.073Z,16.17
2022-09-03T06:29:02.577Z,16.25
2022-09-03T06:31:32.821Z,16.37
2022-09-03T06:34:04.004Z,16.52
2022-09-03T06:36:31.978Z,16.49
2022-09-03T06:39:00.042Z,16.64
2022-09-03T06:41:31.742Z,16.76
2022-09-03T06:44:02.267Z,16.86
2022-09-03T06:46:31.475Z,16.95
2022-09-03T06:49:00.421Z,17.03
2022-09-03T06:51:30.176Z,17.19
2022-09-03T06:54:03.084Z,17.14
2022-09-03T06:56:37.339Z,17.26
2022-09-03T06:59:16.379Z,17.18
2022-09-03T07:01:46.326Z,17.31
2022-09-03T07:04:16.476Z,17.48
2022-09-03T07:06:45.248Z,17.48
2022-09-03T07:09:15.337Z,17.68
2022-09-03T07:11:47.391Z,17.85
2022-09-03T07:14:16.242Z,18.06
2022-09-03T07:16:43.832Z,17.97
2022-09-03T07:19:13.341Z,18.24
2022-09-03T07:21:46.746Z,18.37
2022-09-03T07:24:16.647Z,18.50
2022-09-03T07:26:46.387Z,18.67
2022-09-03T07:29:15.740Z,18.84
2022-09-03T07:31:44.797Z,19.01
2022-09-03T07:34:16.372Z,19.03
2022-09-03T07:36:48.719Z,18.96
2022-09-03T07:39:17.849Z,19.34
2022-09-03T07:41:46.679Z,19.61
2022-09-03T07:44:19.560Z,19.77
2022-09-03T07:46:48.173Z,19.78
2022-09-03T07:49:15.990Z,20.08
2022-09-03T07:51:43.653Z,20.32
2022-09-03T07:54:11.962Z,20.34
2022-09-03T07:56:41.399Z,20.18
2022-09-03T07:59:10.119Z,20.25
2022-09-03T08:01:39.160Z,20.38
2022-09-03T08:04:10.881Z,20.62
2022-09-03T08:06:39.419Z,20.59
2022-09-03T08:09:09.884Z,20.66
2022-09-03T08:11:39.565Z,20.99
2022-09-03T08:14:10.495Z,21.13
2022-09-03T08:16:41.919Z,21.48
2022-09-03T08:19:09.783Z,21.57
2022-09-03T08:21:37.650Z,21.01
2022-09-03T08:24:05.745Z,21.51
2022-09-03T08:26:46.193Z,21.37
2022-09-03T08:29:15.421Z,21.38
2022-09-03T08:31:43.818Z,21.51
2022-09-03T08:34:11.978Z,21.74
2022-09-03T08:36:42.652Z,21.77
2022-09-03T08:39:11.705Z,21.62
2022-09-03T08:41:55.200Z,21.95
2022-09-03T08:44:35.871Z,22.33
2022-09-03T08:47:27.512Z,22.40
2022-09-03T08:50:04.465Z,22.55
2022-09-03T08:52:58.526Z,22.13
2022-09-03T08:55:36.632Z,22.60
2022-09-03T08:58:07.894Z,22.82
2022-09-03T09:00:46.632Z,23.59
2022-09-03T09:03:51.842Z,23.92
2022-09-03T09:06:42.043Z,24.18
2022-09-03T09:09:32.633Z,24.72
2022-09-03T09:12:16.047Z,25.16
2022-09-03T09:15:35.413Z,25.94
2022-09-03T09:18:14.882Z,25.54
2022-09-03T09:20:51.676Z,25.84
2022-09-03T09:23:36.873Z,26.41
2022-09-03T09:26:11.150Z,26.32
2022-09-03T09:28:40.277Z,26.06
2022-09-03T09:31:15.439Z,26.27
2022-09-03T09:33:43.674Z,26.04
2022-09-03T09:36:15.484Z,26.69
2022-09-03T09:38:45.411Z,27.40
2022-09-03T09:41:20.151Z,27.63
2022-09-03T09:43:49.198Z,28.01
2022-09-03T09:46:22.283Z,27.86
2022-09-03T09:48:57.516Z,27.63
2022-09-03T09:51:32.669Z,27.99
2022-09-03T09:54:16.482Z,28.11
2022-09-03T09:56:44.583Z,28.59
2022-09-03T09:59:14.867Z,27.26
2022-09-03T10:01:44.833Z,27.56
2022-09-03T10:04:32.856Z,28.04
2022-09-03T10:07:06.730Z,27.09
2022-09-03T10:09:34.633Z,26.77
2022-09-03T10:12:08.002Z,26.43
2022-09-03T10:14:54.792Z,27.04
2022-09-03T10:17:36.881Z,27.53
2022-09-03T10:20:31.183Z,27.15
2022-09-03T10:23:04.387Z,27.08
2022-09-03T10:25:53.689Z,26.24
2022-09-03T10:28:26.819Z,26.47
2022-09-03T10:31:08.122Z,27.14
2022-09-03T10:33:44.444Z,26.92
2022-09-03T10:36:38.502Z,28.15
2022-09-03T10:39:15.009Z,27.36
2022-09-03T10:42:13.271Z,27.18
2022-09-03T10:44:42.111Z,26.58
2022-09-03T10:47:36.191Z,27.06
2022-09-03T10:50:17.427Z,27.67
2022-09-03T10:53:07.673Z,27.00
2022-09-03T10:56:07.036Z,26.75
2022-09-03T10:58:58.926Z,28.09
2022-09-03T11:01:44.130Z,27.19
2022-09-03T11:04:46.393Z,26.84
2022-09-03T11:07:15.367Z,26.79
2022-09-03T11:10:11.614Z,27.78
2022-09-03T11:12:47.745Z,27.31
2022-09-03T11:15:34.190Z,26.91
2022-09-03T11:18:16.034Z,27.44
2022-09-03T11:20:45.101Z,27.79
2022-09-03T11:23:15.194Z,28.15
2022-09-03T11:25:48.970Z,29.03
2022-09-03T11:28:33.283Z,29.30
2022-09-03T11:31:42.702Z,29.36
2022-09-03T11:34:23.290Z,29.38
2022-09-03T11:37:26.716Z,29.28
2022-09-03T11:40:08.869Z,29.93
2022-09-03T11:42:42.056Z,29.44
2022-09-03T11:45:39.182Z,29.64
2022-09-03T11:48:31.671Z,30.17
2022-09-03T11:50:59.169Z,30.33
2022-09-03T11:53:34.614Z,30.06
2022-09-03T11:56:18.606Z,30.48
2022-09-03T11:58:47.869Z,30.71
2022-09-03T12:01:18.129Z,30.69
2022-09-03T12:04:03.347Z,30.97
2022-09-03T12:06:56.778Z,30.72
2022-09-03T12:10:12.870Z,30.15
2022-09-03T12:13:24.256Z,31.19
2022-09-03T12:16:21.263Z,31.31
2022-09-03T12:18:52.894Z,31.71
2022-09-03T12:21:21.370Z,30.68
2022-09-03T12:23:51.405Z,30.97
2022-09-03T12:26:28.086Z,31.07
2022-09-03T12:29:00.206Z,31.69
2022-09-03T12:31:35.026Z,31.46
2022-09-03T12:34:16.776Z,30.43
2022-09-03T12:36:47.428Z,30.59
2022-09-03T12:39:17.930Z,31.24
2022-09-03T12:42:08.339Z,31.54
2022-09-03T12:44:35.817Z,30.30
2022-09-03T12:50:08.870Z,30.07
2022-09-03T12:53:02.430Z,30.40
2022-09-03T12:55:41.981Z,30.30
2022-09-03T12:58:21.712Z,30.96
2022-09-03T13:00:56.265Z,30.93
2022-09-03T13:03:34.413Z,30.31
2022-09-03T13:06:10.478Z,30.47
2022-09-03T13:08:50.485Z,30.58
2022-09-03T13:11:22.007Z,30.94
2022-09-03T13:14:05.839Z,31.64
2022-09-03T13:16:46.532Z,30.69
2022-09-03T13:19:26.796Z,30.43
2022-09-03T13:21:57.610Z,30.35
2022-09-03T13:24:40.549Z,29.43
2022-09-03T13:27:24.574Z,29.89
2022-09-03T13:30:23.143Z,30.30
2022-09-03T13:33:16.609Z,30.63
2022-09-03T13:36:10.082Z,30.64
2022-09-03T13:39:03.343Z,30.09
2022-09-03T13:41:46.005Z,30.06
2022-09-03T13:44:23.690Z,29.73
2022-09-03T13:47:02.109Z,30.17
2022-09-03T13:50:02.312Z,30.49
2022-09-03T13:52:42.991Z,30.06
2022-09-03T13:55:14.453Z,29.96
2022-09-03T13:57:56.355Z,29.66
2022-09-03T14:00:41.218Z,29.16
2022-09-03T14:03:17.982Z,29.16
2022-09-03T14:06:01.536Z,28.31
2022-09-03T14:08:55.422Z,28.19
2022-09-03T14:11:55.744Z,28.09
2022-09-03T14:14:38.317Z,27.80
2022-09-03T14:17:27.880Z,27.78
2022-09-03T14:20:04.929Z,27.92
2022-09-03T14:23:10.111Z,27.91
2022-09-03T14:25:42.795Z,28.00
2022-09-03T14:28:26.937Z,27.77
2022-09-03T14:31:18.406Z,27.80
2022-09-03T14:33:58.512Z,27.86
2022-09-03T14:37:05.197Z,27.74
2022-09-03T14:39:33.144Z,27.39
2022-09-03T14:42:07.949Z,27.45
2022-09-03T14:45:03.339Z,27.73
2022-09-03T14:47:55.878Z,27.55
2022-09-03T14:50:42.271Z,27.32
2022-09-03T14:53:34.655Z,27.23
2022-09-03T14:56:31.171Z,27.44
2022-09-03T14:59:20.481Z,27.13
2022-09-03T15:02:14.525Z,27.27
2022-09-03T15:04:44.797Z,27.17
2022-09-03T15:07:32.942Z,27.38
2022-09-03T15:10:00.890Z,27.30
2022-09-03T15:12:37.180Z,27.32
2022-09-03T15:15:31.827Z,27.26
2022-09-03T15:18:17.342Z,27.23
2022-09-03T15:20:54.066Z,26.95
2022-09-03T15:23:26.863Z,27.06
2022-09-03T15:26:33.433Z,27.10
2022-09-03T15:29:10.121Z,27.17
2022-09-03T15:32:08.054Z,27.20
2022-09-03T15:34:50.731Z,26.99
2022-09-03T15:37:28.622Z,26.91
2022-09-03T15:40:37.764Z,26.81
2022-09-03T15:43:16.788Z,26.92
2022-09-03T15:45:52.117Z,26.97
2022-09-03T15:48:39.246Z,26.97
2022-09-03T15:51:14.328Z,26.91
2022-09-03T15:54:03.418Z,26.94
2022-09-03T15:57:10.810Z,27.02
2022-09-03T15:59:53.571Z,26.86
2022-09-03T16:02:41.942Z,26.77
2022-09-03T16:05:20.397Z,26.81
2022-09-03T16:08:08.178Z,26.81
2022-09-03T16:11:03.080Z,26.79
2022-09-03T16:13:46.589Z,26.64
2022-09-03T16:16:22.394Z,26.67
2022-09-03T16:19:11.058Z,26.58
2022-09-03T16:21:45.453Z,26.60
2022-09-03T16:24:24.098Z,26.62
2022-09-03T16:27:12.317Z,26.60
2022-09-03T16:29:40.027Z,26.59
2022-09-03T16:32:31.966Z,26.44
2022-09-03T16:35:24.826Z,26.30
2022-09-03T16:38:14.731Z,26.30
2022-09-03T16:41:23.546Z,26.05
2022-09-03T16:44:17.800Z,26.04
2022-09-03T16:46:54.058Z,26.03
2022-09-03T16:49:49.253Z,26.01
2022-09-03T16:52:38.464Z,26.00
2022-09-03T16:55:22.219Z,25.95
2022-09-03T16:58:12.028Z,25.95
2022-09-03T17:01:03.147Z,25.82
2022-09-03T17:04:11.708Z,25.81
2022-09-03T17:06:39.815Z,25.78
2022-09-03T17:09:37.880Z,25.70
2022-09-03T17:12:16.604Z,25.71
2022-09-03T17:14:47.594Z,25.62
2022-09-03T17:17:28.774Z,25.55
2022-09-03T17:20:20.020Z,25.49
2022-09-03T17:22:53.510Z,25.37
2022-09-03T17:25:40.967Z,25.35
2022-09-03T17:28:25.538Z,25.30
2022-09-03T17:31:04.117Z,25.28
2022-09-03T17:33:50.180Z,25.19
2022-09-03T17:36:27.278Z,25.08
2022-09-03T17:39:12.910Z,25.00
2022-09-03T17:42:03.061Z,24.93
2022-09-03T17:44:57.957Z,24.80
2022-09-03T17:48:02.997Z,24.75
2022-09-03T17:50:44.714Z,24.59
2022-09-03T17:53:21.998Z,24.48
2022-09-03T17:56:01.422Z,24.33
2022-09-03T17:58:52.165Z,24.24
2022-09-03T18:01:27.478Z,24.07
2022-09-03T18:03:55.079Z,23.96
2022-09-03T18:06:42.854Z,23.82
2022-09-03T18:09:28.586Z,23.69
2022-09-03T18:12:22.122Z,23.56
2022-09-03T18:15:00.626Z,23.42
2022-09-03T18:17:35.056Z,23.29
2022-09-03T18:20:32.770Z,23.13
2022-09-03T18:23:17.783Z,23.05
2022-09-03T18:26:08.209Z,22.95
2022-09-03T18:29:25.964Z,22.76
2022-09-03T18:32:11.031Z,22.62
2022-09-03T18:34:57.218Z,22.50
2022-09-03T18:37:45.500Z,22.37
2022-09-03T18:40:41.369Z,22.25
2022-09-03T18:43:58.153Z,22.12
2022-09-03T18:48:01.686Z,21.96
2022-09-03T18:50:13.868Z,21.80
2022-09-03T18:53:18.221Z,21.70
2022-09-03T18:56:12.413Z,21.61
2022-09-03T18:59:09.941Z,21.50
2022-09-03T19:01:59.909Z,21.43
2022-09-03T19:04:56.177Z,21.35
2022-09-03T19:08:00.178Z,21.32
2022-09-03T19:11:01.955Z,21.23
2022-09-03T19:13:58.493Z,21.19
2022-09-03T19:17:24.973Z,21.10
2022-09-03T19:20:10.043Z,20.96
2022-09-03T19:22:59.902Z,20.82
2022-09-03T19:25:47.281Z,20.72
2022-09-03T19:28:34.565Z,20.70
2022-09-03T19:31:44.581Z,20.67
2022-09-03T19:34:47.132Z,20.58
2022-09-03T19:37:31.887Z,20.54
2022-09-03T19:40:35.611Z,20.54
2022-09-03T19:43:34.908Z,20.55
2022-09-03T19:46:41.734Z,20.47
2022-09-03T19:49:42.199Z,20.46
2022-09-03T19:52:33.257Z,20.43
2022-09-03T19:55:19.242Z,20.37
2022-09-03T19:58:26.132Z,20.30
2022-09-03T20:01:16.620Z,20.20
2022-09-03T20:04:01.651Z,20.16
2022-09-03T20:06:50.448Z,20.10
2022-09-03T20:09:39.302Z,20.05
2022-09-03T20:12:10.190Z,19.98
2022-09-03T20:14:38.211Z,19.92
2022-09-03T20:17:05.791Z,19.90
2022-09-03T20:19:51.181Z,19.85
2022-09-03T20:22:18.614Z,19.81
2022-09-03T20:25:05.064Z,19.73
2022-09-03T20:27:40.776Z,19.67
2022-09-03T20:30:13.654Z,19.60
2022-09-03T20:33:01.245Z,19.55
2022-09-03T20:35:37.211Z,19.51
2022-09-03T20:38:29.902Z,19.42
2022-09-03T20:41:31.381Z,19.35
2022-09-03T20:44:17.282Z,19.29
2022-09-03T20:47:21.332Z,19.20
2022-09-03T20:49:54.935Z,19.15
2022-09-03T20:52:46.550Z,19.13
2022-09-03T20:55:27.177Z,19.06
2022-09-03T20:58:25.182Z,19.06
2022-09-03T21:01:09.341Z,18.97
2022-09-03T21:04:11.396Z,18.91
2022-09-03T21:06:58.654Z,18.86
2022-09-03T21:09:38.203Z,18.88
2022-09-03T21:12:26.157Z,18.90
2022-09-03T21:15:05.975Z,18.90
2022-09-03T21:17:52.459Z,18.91
2022-09-03T21:20:42.722Z,18.85
2022-09-03T21:23:16.295Z,18.88
2022-09-03T21:25:49.915Z,18.86
2022-09-03T21:28:32.502Z,18.84
2022-09-03T21:31:15.814Z,18.84
2022-09-03T21:33:48.663Z,18.76
2022-09-03T21:36:22.342Z,18.73
2022-09-03T21:39:16.857Z,18.69
2022-09-03T21:41:50.577Z,18.73
2022-09-03T21:44:25.591Z,18.73
2022-09-03T21:47:00.669Z,18.68
2022-09-03T21:49:36.854Z,18.68
2022-09-03T21:52:09.805Z,18.68
2022-09-03T21:54:37.400Z,18.61
2022-09-03T21:57:26.155Z,18.63
2022-09-03T22:00:04.028Z,18.66
2022-09-03T22:02:33.195Z,18.65
2022-09-03T22:05:03.084Z,18.62
2022-09-03T22:07:53.236Z,18.60
2022-09-03T22:10:45.551Z,18.55
2022-09-03T22:13:21.766Z,18.54
2022-09-03T22:15:51.616Z,18.55
2022-09-03T22:18:29.051Z,18.61
2022-09-03T22:21:13.129Z,18.62
2022-09-03T22:24:19.006Z,18.63
2022-09-03T22:27:00.727Z,18.62
2022-09-03T22:29:31.304Z,18.60
2022-09-03T22:32:10.361Z,18.60
2022-09-03T22:34:59.356Z,18.58
2022-09-03T22:37:43.398Z,18.58
2022-09-03T22:40:25.751Z,18.55
2022-09-03T22:43:01.801Z,18.56
2022-09-03T22:45:55.859Z,18.56
2022-09-03T22:48:45.423Z,18.52
2022-09-03T22:51:13.678Z,18.47
2022-09-03T22:53:53.002Z,18.43
2022-09-03T22:56:22.876Z,18.39
2022-09-03T22:58:59.378Z,18.37
2022-09-03T23:01:36.191Z,18.32
2022-09-03T23:04:39.681Z,18.29
2022-09-03T23:07:52.674Z,18.26
2022-09-03T23:10:31.979Z,18.22
2022-09-03T23:13:11.946Z,18.18
2022-09-03T23:15:42.057Z,18.12
2022-09-03T23:18:17.551Z,18.06
2022-09-03T23:20:55.878Z,17.99
2022-09-03T23:23:30.766Z,17.94
2022-09-03T23:26:23.636Z,17.88
2022-09-03T23:29:00.418Z,17.79
2022-09-03T23:31:28.981Z,17.75
2022-09-03T23:33:57.281Z,17.77
2022-09-03T23:37:05.841Z,17.68
2022-09-03T23:39:55.765Z,17.64
2022-09-03T23:42:54.261Z,17.61
2022-09-03T23:45:48.230Z,17.58
2022-09-03T23:48:46.606Z,17.55
2022-09-03T23:51:19.853Z,17.52
2022-09-03T23:53:55.425Z,17.47
2022-09-03T23:56:25.778Z,17.47
2022-09-03T23:59:30.561Z,17.46
